EDT,Max TemperatureF,Mean TemperatureF,Min TemperatureF,Max Dew PointF,MeanDew PointF,Min DewpointF,Max Humidity, Mean Humidity, Min Humidity, Max Sea Level PressureIn, Mean Sea Level PressureIn, Min Sea Level PressureIn, Max VisibilityMiles, Mean VisibilityMiles, Min VisibilityMiles, Max Wind SpeedMPH, Mean Wind SpeedMPH, Max Gust SpeedMPH,PrecipitationIn, CloudCover, Events, WindDirDegrees
2013-4-1,52,44,36,45,39,15,100,80,42,29.81,29.65,29.57,10,7,0,21,12,31,0.08,5,Fog-Rain,252
2013-4-2,42,36,30,18,12,7,56,39,26,29.99,29.90,29.84,10,10,10,15,10,29,0.00,2,,285
2013-4-3,44,37,30,14,12,9,49,37,26,30.19,30.04,29.98,10,10,10,20,10,30,0.00,0,,287
2013-4-4,45,38,30,33,22,15,83,55,36,30.32,30.22,30.10,10,10,10,17,11,25,0.00,0,,243
2013-4-5,54,46,39,39,33,21,87,67,32,30.09,29.86,29.65,10,10,10,17,8,29,0.00,3,Rain,229
2013-4-6,46,40,30,28,17,3,79,45,18,30.33,30.17,29.89,10,10,10,18,11,30,0.00,0,,296
2013-4-7,48,37,28,41,34,25,92,78,50,30.33,30.21,30.05,10,10,10,17,8,28,0.00,2,,179
2013-4-8,59,50,44,44,42,39,93,76,53,30.10,30.04,29.99,10,9,7,10,7,,0.00,1,,185
2013-4-9,75,58,44,50,44,37,100,77,30,30.09,29.95,29.86,10,7,0,12,9,21,0.01,3,Fog-Rain-Thunderstorm,159
2013-4-10,63,51,42,48,44,41,100,85,60,30.06,29.92,29.86,10,9,1,24,9,37,0.28,5,Rain,114
2013-4-11,52,47,43,47,41,32,100,82,58,30.11,29.95,29.80,10,9,2,15,7,22,0.00,8,Rain,39
2013-4-12,44,40,37,38,35,28,93,84,58,30.12,29.93,29.72,10,5,1,20,12,37,0.45,8,Rain,72
2013-4-13,51,44,37,40,36,34,93,79,54,29.95,29.81,29.69,10,10,6,21,13,29,0.00,7,Rain,351
2013-4-14,54,48,41,39,33,24,86,60,38,30.21,30.03,29.94,10,10,10,15,5,25,0.00,5,,296
2013-4-15,51,44,37,39,33,26,93,69,50,30.41,30.34,30.22,10,10,10,12,6,,0.00,0,,132
2013-4-16,53,47,41,47,42,36,93,81,63,30.41,30.30,30.14,10,10,8,17,10,29,0.00,3,Rain,176
2013-4-17,66,54,39,50,43,36,100,77,34,30.32,30.18,30.11,10,10,7,13,7,22,0.00,4,Rain,217
2013-4-18,54,45,37,46,38,33,93,73,52,30.41,30.32,30.16,10,10,10,15,5,22,0.00,4,,132
2013-4-19,63,56,50,58,54,47,100,96,82,30.14,29.95,29.74,10,3,0,22,14,34,0.06,8,Fog-Rain,181
2013-4-20,60,52,46,57,46,29,100,82,40,30.20,29.82,29.68,10,6,1,28,15,43,0.29,6,Rain,238
2013-4-21,51,42,35,32,25,19,82,52,32,30.66,30.50,30.24,10,10,10,16,11,28,0.00,0,,323
2013-4-22,51,43,36,34,30,26,82,63,41,30.71,30.64,30.55,10,10,10,16,8,24,0.00,2,,64
2013-4-23,44,42,39,43,39,31,100,89,70,30.52,30.30,30.02,10,7,2,23,14,33,0.00,8,Rain,26
2013-4-24,60,50,42,47,43,39,100,84,58,29.99,29.94,29.88,10,7,0,22,14,31,0.00,5,Fog,242
2013-4-25,62,52,44,49,41,29,100,76,31,30.26,30.05,29.90,10,7,0,17,9,25,0.01,5,Fog-Rain,250
2013-4-26,55,48,42,42,37,27,93,63,47,30.41,30.36,30.27,10,10,10,13,7,18,0.00,0,,108
2013-4-27,55,46,36,43,37,30,100,79,40,30.41,30.38,30.33,10,7,1,14,2,,0.00,1,,152
2013-4-28,59,47,37,46,39,26,93,73,34,30.35,30.31,30.27,10,10,3,12,4,,0.00,0,,164
2013-4-29,62,54,46,47,40,28,93,69,32,30.29,30.27,30.25,10,10,8,13,5,,0.00,2,,174
2013-4-30,61,50,39,41,35,27,93,60,33,30.36,30.31,30.26,10,10,7,13,4,,0.00,0,,133